Time;durP1;ratioP1;P1;durP2;ratioP2;P2;SDS_P1;SDS_P2;PMS_P1;PMS_P2;Temp;Humidity;BMP_temperature;BMP_pressure;BME280_temperature;BME280_humidity;BME280_pressure;Samples;Min_cycle;Max_cycle;Signal;HPM_P1;HPM_P2
2023/07/28 00:01:08;;;;;;;2.58;1.75;;;22.40;64.40;;;;;;5094054;28;20254;-57
2023/07/28 00:03:35;;;;;;;3.20;1.77;;;22.40;64.40;;;;;;5094074;28;20214;-59
2023/07/28 00:06:02;;;;;;;3.58;1.52;;;22.40;64.30;;;;;;5093769;28;20213;-54
2023/07/28 00:08:30;;;;;;;2.25;1.60;;;22.40;64.30;;;;;;5094164;28;20224;-58
2023/07/28 00:10:57;;;;;;;3.17;1.60;;;22.40;64.40;;;;;;5093548;28;20187;-57
2023/07/28 00:13:24;;;;;;;2.13;1.63;;;22.40;64.30;;;;;;5093864;28;20214;-57
2023/07/28 00:15:52;;;;;;;2.75;1.83;;;22.40;64.30;;;;;;5093379;28;20190;-58
2023/07/28 00:18:21;;;;;;;2.40;1.60;;;22.40;64.30;;;;;;5093764;28;20218;-58
2023/07/28 00:20:48;;;;;;;3.05;1.65;;;22.40;64.30;;;;;;5093382;28;20225;-58
2023/07/28 00:23:16;;;;;;;2.70;1.80;;;22.40;64.30;;;;;;5092469;28;20214;-56
2023/07/28 00:25:43;;;;;;;2.35;1.85;;;22.40;64.30;;;;;;5093248;28;20190;-59
2023/07/28 00:28:10;;;;;;;3.80;2.00;;;22.40;64.30;;;;;;5093270;28;20301;-58
2023/07/28 00:30:37;;;;;;;2.65;1.73;;;22.40;64.30;;;;;;5093271;28;20233;-58
2023/07/28 00:33:05;;;;;;;2.72;1.60;;;22.40;64.30;;;;;;5093167;28;20249;-60
2023/07/28 00:35:33;;;;;;;3.25;2.05;;;22.40;64.30;;;;;;5093647;28;20553;-57
2023/07/28 00:38:01;;;;;;;3.10;1.92;;;22.40;64.30;;;;;;5093088;28;20217;-59
2023/07/28 00:40:28;;;;;;;2.10;1.65;;;22.40;64.30;;;;;;5093305;28;20256;-60
2023/07/28 00:42:55;;;;;;;3.55;1.80;;;22.40;64.30;;;;;;5093024;28;20221;-59
2023/07/28 00:45:23;;;;;;;3.28;1.50;;;22.40;64.30;;;;;;5093208;28;20201;-60
2023/07/28 00:50:42;;;;;;;2.38;1.42;;;22.40;64.30;;;;;;5047831;28;20205;-57
2023/07/28 00:53:10;;;;;;;3.17;1.70;;;22.40;64.30;;;;;;5090722;28;20224;-57
2023/07/28 00:55:38;;;;;;;3.17;1.60;;;22.40;64.30;;;;;;5092671;28;20202;-59
2023/07/28 00:58:05;;;;;;;2.10;1.75;;;22.40;64.30;;;;;;5093041;28;20220;-58
2023/07/28 01:00:33;;;;;;;2.50;1.58;;;22.40;64.30;;;;;;5092998;28;20230;-58
2023/07/28 01:03:00;;;;;;;4.60;1.80;;;22.40;64.30;;;;;;5092837;28;20221;-55
2023/07/28 01:05:34;;;;;;;4.50;2.00;;;22.40;64.30;;;;;;5092927;28;20186;-58
2023/07/28 01:08:12;;;;;;;2.00;1.67;;;22.40;64.30;;;;;;5092817;28;20218;-59
2023/07/28 01:10:40;;;;;;;1.60;1.50;;;22.40;64.30;;;;;;5092509;28;20630;-59
2023/07/28 01:13:07;;;;;;;1.83;1.30;;;22.40;64.30;;;;;;5092754;28;20217;-58
2023/07/28 01:15:34;;;;;;;2.22;1.80;;;22.40;64.20;;;;;;5092750;28;20193;-60
2023/07/28 01:18:02;;;;;;;4.85;1.60;;;22.30;64.20;;;;;;5092383;28;20258;-59
2023/07/28 01:20:33;;;;;;;2.42;1.75;;;22.30;64.20;;;;;;5092239;28;20210;-56
2023/07/28 01:23:21;;;;;;;1.90;1.40;;;22.30;64.20;;;;;;5092540;28;20217;-59
2023/07/28 01:26:01;;;;;;;2.28;1.40;;;22.30;64.20;;;;;;5092899;28;20243;-55
2023/07/28 01:28:31;;;;;;;2.38;1.67;;;22.40;64.30;;;;;;5092787;28;20245;-56
2023/07/28 01:30:58;;;;;;;3.60;1.50;;;22.30;65.00;;;;;;5092271;28;20226;-56
2023/07/28 01:33:25;;;;;;;2.30;1.40;;;22.30;64.20;;;;;;5092135;28;20662;-58
2023/07/28 01:35:52;;;;;;;2.78;1.70;;;22.30;64.20;;;;;;5092714;28;20280;-56
2023/07/28 01:38:20;;;;;;;2.17;1.58;;;22.30;64.20;;;;;;5092389;28;20302;-59
2023/07/28 01:40:47;;;;;;;2.47;1.77;;;22.30;64.20;;;;;;5092049;28;20707;-56
2023/07/28 01:43:15;;;;;;;3.35;1.60;;;22.30;64.20;;;;;;5092365;28;20210;-58
2023/07/28 01:45:43;;;;;;;2.05;1.63;;;22.30;64.10;;;;;;5092408;28;20198;-56
2023/07/28 01:48:11;;;;;;;1.75;1.55;;;22.30;64.20;;;;;;5091988;28;20218;-52
2023/07/28 01:50:38;;;;;;;4.00;1.60;;;22.30;64.20;;;;;;5092391;28;20199;-57
2023/07/28 01:53:08;;;;;;;2.70;1.52;;;22.30;64.20;;;;;;5092462;28;20214;-57
2023/07/28 01:55:36;;;;;;;3.80;1.60;;;22.30;64.10;;;;;;5092394;28;20218;-57
2023/07/28 01:58:03;;;;;;;1.67;1.55;;;22.30;64.20;;;;;;5092303;28;20221;-58
2023/07/28 02:00:31;;;;;;;1.73;1.23;;;22.30;64.10;;;;;;5092268;28;20224;-58
2023/07/28 02:03:01;;;;;;;3.03;1.80;;;22.30;64.10;;;;;;5092177;28;20279;-54
2023/07/28 02:05:29;;;;;;;3.40;1.42;;;22.30;64.10;;;;;;5091813;28;20277;-57
2023/07/28 02:07:58;;;;;;;2.45;1.50;;;22.30;64.10;;;;;;5092128;28;20236;-57
2023/07/28 02:10:27;;;;;;;1.25;1.15;;;22.30;64.10;;;;;;5091861;28;20197;-58
2023/07/28 02:12:55;;;;;;;3.08;1.33;;;22.30;64.10;;;;;;5091984;28;20200;-58
2023/07/28 02:15:22;;;;;;;2.22;1.23;;;22.30;64.10;;;;;;5092073;28;20182;-53
2023/07/28 02:17:50;;;;;;;2.13;1.40;;;22.30;64.20;;;;;;5091954;28;20692;-58
2023/07/28 02:20:18;;;;;;;1.95;1.25;;;22.30;64.10;;;;;;5091570;28;20201;-58
2023/07/28 02:22:46;;;;;;;2.63;1.42;;;22.30;64.20;;;;;;5091925;28;20186;-57
2023/07/28 02:25:13;;;;;;;2.45;1.35;;;22.30;64.10;;;;;;5092013;28;20183;-57
2023/07/28 02:27:41;;;;;;;1.95;1.35;;;22.30;64.20;;;;;;5092000;28;20190;-56
2023/07/28 02:30:10;;;;;;;2.15;1.23;;;22.30;64.10;;;;;;5092021;28;20214;-56
2023/07/28 02:32:39;;;;;;;1.58;1.20;;;22.30;64.10;;;;;;5092006;28;20718;-57
2023/07/28 02:35:07;;;;;;;2.70;1.35;;;22.30;64.10;;;;;;5091943;28;20299;-55
2023/07/28 02:37:36;;;;;;;3.05;1.60;;;22.30;64.10;;;;;;5091893;28;20192;-55
2023/07/28 02:40:03;;;;;;;1.75;1.50;;;22.30;64.20;;;;;;5092088;28;20275;-57
2023/07/28 02:42:33;;;;;;;2.10;1.30;;;22.30;64.10;;;;;;5091618;28;20256;-59
2023/07/28 02:45:04;;;;;;;2.50;1.27;;;22.30;64.20;;;;;;5091802;28;20758;-57
2023/07/28 02:47:31;;;;;;;2.25;1.40;;;22.30;64.10;;;;;;5095453;28;20194;-56
2023/07/28 02:49:59;;;;;;;2.83;1.50;;;22.30;64.20;;;;;;5095874;28;20214;-56
2023/07/28 02:52:26;;;;;;;1.73;1.30;;;22.30;64.10;;;;;;5095310;28;20194;-57
2023/07/28 02:54:55;;;;;;;4.00;1.45;;;22.20;64.00;;;;;;5095276;28;20300;-56
2023/07/28 02:57:22;;;;;;;2.38;1.10;;;22.30;64.10;;;;;;5095289;28;20270;-58
2023/07/28 02:59:50;;;;;;;2.38;1.40;;;22.20;64.00;;;;;;5110046;28;20218;-56
2023/07/28 03:02:17;;;;;;;2.55;1.42;;;22.30;64.10;;;;;;5095054;28;20222;-55
2023/07/28 03:04:55;;;;;;;2.30;1.50;;;22.20;64.00;;;;;;5095232;28;20245;-57
2023/07/28 03:07:22;;;;;;;2.10;1.73;;;22.30;64.20;;;;;;5094013;28;20280;-55
2023/07/28 03:09:49;;;;;;;1.40;1.20;;;22.30;64.20;;;;;;5095272;28;20221;-55
2023/07/28 03:12:18;;;;;;;1.60;1.20;;;22.30;64.10;;;;;;5094886;28;20206;-57
2023/07/28 03:14:46;;;;;;;1.48;1.35;;;22.20;64.00;;;;;;5095126;28;20221;-58
2023/07/28 03:17:19;;;;;;;1.85;1.35;;;22.20;64.10;;;;;;5095098;28;20232;-56
2023/07/28 03:19:46;;;;;;;4.03;1.50;;;22.30;64.20;;;;;;5094772;28;20222;-57
2023/07/28 03:22:13;;;;;;;1.52;1.25;;;22.30;64.10;;;;;;5094986;28;20218;-56
2023/07/28 03:24:41;;;;;;;1.52;1.42;;;22.20;64.00;;;;;;5094959;28;20300;-56
2023/07/28 03:27:09;;;;;;;4.82;1.67;;;22.20;64.00;;;;;;5094651;28;20187;-58
2023/07/28 03:29:37;;;;;;;2.95;1.23;;;22.20;64.00;;;;;;5094879;28;20222;-57
2023/07/28 03:32:05;;;;;;;2.90;1.45;;;22.20;64.00;;;;;;5094219;28;20230;-58
2023/07/28 03:34:33;;;;;;;1.67;1.20;;;22.20;64.00;;;;;;5094558;28;20711;-57
2023/07/28 03:37:00;;;;;;;2.67;1.50;;;22.20;64.00;;;;;;5094701;28;20183;-57
2023/07/28 03:39:27;;;;;;;1.30;1.20;;;22.20;64.10;;;;;;5094880;28;20210;-58
2023/07/28 03:41:55;;;;;;;2.35;1.45;;;22.20;64.10;;;;;;5094331;28;20221;-58
2023/07/28 03:44:22;;;;;;;1.40;1.23;;;22.20;64.10;;;;;;5094639;28;20214;-58
2023/07/28 03:46:51;;;;;;;2.53;1.45;;;22.30;64.20;;;;;;5093952;28;20186;-55
2023/07/28 03:49:18;;;;;;;1.25;1.15;;;22.20;64.10;;;;;;5094394;28;20218;-54
2023/07/28 03:51:46;;;;;;;2.40;1.40;;;22.30;64.20;;;;;;5094360;28;20186;-56
2023/07/28 03:54:13;;;;;;;1.95;1.50;;;22.20;64.10;;;;;;5094127;28;20222;-57
2023/07/28 03:56:40;;;;;;;1.40;1.30;;;22.20;64.10;;;;;;5093626;28;20186;-58
2023/07/28 03:59:08;;;;;;;1.80;1.30;;;22.20;64.10;;;;;;5093887;28;20750;-57
2023/07/28 04:01:35;;;;;;;2.08;1.50;;;22.20;64.10;;;;;;5094231;28;20214;-58
2023/07/28 04:04:04;;;;;;;1.85;1.20;;;22.20;64.10;;;;;;5094118;28;20218;-55
2023/07/28 04:06:42;;;;;;;2.05;1.30;;;22.20;64.10;;;;;;5093899;28;20280;-57
2023/07/28 04:09:09;;;;;;;1.85;1.30;;;22.20;64.10;;;;;;5094054;28;20218;-58
2023/07/28 04:11:37;;;;;;;1.30;1.20;;;22.20;64.10;;;;;;5094001;28;20186;-54
2023/07/28 04:14:05;;;;;;;2.35;1.70;;;22.20;64.10;;;;;;5093853;28;20253;-57
2023/07/28 04:16:33;;;;;;;1.58;1.27;;;22.20;64.10;;;;;;5093410;28;20235;-55
2023/07/28 04:19:00;;;;;;;1.77;1.20;;;22.20;64.10;;;;;;5093526;28;20490;-55
2023/07/28 04:21:29;;;;;;;2.47;1.25;;;22.20;64.10;;;;;;5093371;28;20218;-56
2023/07/28 04:23:56;;;;;;;1.75;1.10;;;22.20;64.10;;;;;;5093626;28;20217;-57
2023/07/28 04:26:25;;;;;;;1.92;1.40;;;22.20;64.10;;;;;;5093605;28;20251;-58
2023/07/28 04:28:53;;;;;;;1.30;1.20;;;22.20;64.10;;;;;;5093487;28;20306;-58
2023/07/28 04:31:20;;;;;;;2.42;1.30;;;22.20;64.10;;;;;;5093313;28;20312;-57
2023/07/28 04:33:47;;;;;;;3.65;1.55;;;22.20;64.10;;;;;;5093035;28;20249;-58
2023/07/28 04:36:14;;;;;;;1.65;1.20;;;22.10;64.00;;;;;;5093319;28;20281;-57
2023/07/28 04:38:43;;;;;;;2.50;1.50;;;22.20;64.10;;;;;;5093403;28;20217;-55
2023/07/28 04:41:19;;;;;;;1.33;1.20;;;22.20;64.10;;;;;;5093200;28;20236;-58
2023/07/28 04:43:46;;;;;;;1.50;1.17;;;22.10;64.00;;;;;;5093222;28;20221;-57
2023/07/28 04:46:14;;;;;;;1.60;1.35;;;22.20;64.10;;;;;;5092936;28;20190;-55
2023/07/28 04:48:41;;;;;;;1.73;1.33;;;22.20;64.10;;;;;;5093450;28;20222;-57
2023/07/28 04:51:08;;;;;;;1.42;1.23;;;22.20;64.10;;;;;;5093420;28;20201;-58
2023/07/28 04:53:36;;;;;;;1.65;1.20;;;22.10;64.00;;;;;;5092651;28;20233;-57
2023/07/28 04:56:32;;;;;;;1.30;1.10;;;22.20;65.00;;;;;;5093146;28;20189;-57
2023/07/28 04:58:59;;;;;;;1.10;1.00;;;22.20;64.20;;;;;;5092676;28;20246;-58
2023/07/28 05:01:27;;;;;;;1.20;1.10;;;22.20;64.20;;;;;;5092875;28;20302;-57
2023/07/28 05:03:54;;;;;;;1.23;1.10;;;22.10;64.10;;;;;;5092791;28;20245;-57
2023/07/28 05:06:21;;;;;;;1.85;1.50;;;22.20;64.20;;;;;;5092900;28;20217;-57
2023/07/28 05:08:48;;;;;;;1.42;1.30;;;22.20;64.20;;;;;;5092239;28;20210;-54
2023/07/28 05:11:16;;;;;;;1.98;1.38;;;22.20;64.20;;;;;;5092488;28;20190;-57
2023/07/28 05:13:45;;;;;;;2.35;1.75;;;22.10;64.10;;;;;;5092358;28;20766;-57
2023/07/28 05:16:12;;;;;;;1.42;1.20;;;22.20;64.20;;;;;;5092415;28;20189;-55
2023/07/28 05:18:42;;;;;;;2.63;1.02;;;22.10;64.10;;;;;;5092715;28;20218;-57
2023/07/28 05:27:21;;;;;;;1.80;1.30;;;22.10;64.10;;;;;;5060750;28;20197;-56
2023/07/28 05:29:50;;;;;;;1.55;1.20;;;22.10;64.10;;;;;;5092741;28;20214;-55
2023/07/28 05:32:17;;;;;;;1.75;1.20;;;22.10;64.10;;;;;;5092400;28;20229;-56
2023/07/28 05:34:45;;;;;;;1.60;1.40;;;22.20;64.30;;;;;;5093000;28;20209;-58
2023/07/28 05:37:12;;;;;;;2.33;1.40;;;22.10;64.20;;;;;;5092454;28;20193;-58
2023/07/28 05:39:39;;;;;;;2.28;1.50;;;22.20;64.30;;;;;;5092475;28;20221;-56
2023/07/28 05:42:07;;;;;;;2.50;1.45;;;22.10;64.20;;;;;;5092267;28;20220;-57
2023/07/28 05:44:35;;;;;;;2.47;1.40;;;22.20;64.40;;;;;;5092503;28;20214;-61
2023/07/28 05:47:04;;;;;;;1.52;1.30;;;22.20;64.30;;;;;;5092384;28;20186;-59
2023/07/28 05:49:32;;;;;;;2.92;1.33;;;22.20;64.20;;;;;;5092170;28;20743;-56
2023/07/28 05:51:59;;;;;;;2.05;1.38;;;22.20;64.20;;;;;;5092278;28;20201;-58
2023/07/28 05:54:27;;;;;;;2.05;1.50;;;22.20;64.30;;;;;;5092234;28;20209;-57
2023/07/28 05:56:54;;;;;;;2.70;1.50;;;22.20;64.40;;;;;;5092286;28;20250;-54
2023/07/28 05:59:21;;;;;;;3.70;1.33;;;22.20;64.40;;;;;;5092011;28;20213;-58
2023/07/28 06:01:49;;;;;;;3.00;1.30;;;22.20;64.50;;;;;;5091818;28;20775;-54
2023/07/28 06:04:18;;;;;;;1.60;1.50;;;22.20;64.50;;;;;;5092215;28;20225;-56
2023/07/28 06:06:45;;;;;;;1.42;1.20;;;22.20;64.50;;;;;;5091922;28;20190;-55
2023/07/28 06:09:12;;;;;;;1.75;1.30;;;22.20;64.40;;;;;;5092125;28;20222;-54
2023/07/28 06:11:40;;;;;;;6.43;1.30;;;22.20;64.50;;;;;;5091949;28;20554;-53
2023/07/28 06:14:07;;;;;;;2.80;1.10;;;22.20;64.50;;;;;;5092192;28;20218;-56
2023/07/28 06:16:34;;;;;;;1.42;1.30;;;22.20;64.60;;;;;;5091834;28;20220;-55
2023/07/28 06:19:01;;;;;;;1.50;1.40;;;22.20;64.60;;;;;;5092026;28;20738;-56
2023/07/28 06:21:30;;;;;;;1.30;1.20;;;22.20;64.60;;;;;;5094207;28;20182;-58
2023/07/28 06:23:57;;;;;;;1.67;1.20;;;22.20;64.70;;;;;;5096013;28;20214;-55
2023/07/28 06:26:25;;;;;;;2.30;1.40;;;22.20;64.70;;;;;;5095955;28;20194;-58
2023/07/28 06:28:52;;;;;;;2.22;1.38;;;22.20;64.80;;;;;;5095903;28;20236;-58
2023/07/28 06:31:19;;;;;;;1.90;1.25;;;22.20;64.80;;;;;;5095573;28;20233;-58
2023/07/28 06:33:48;;;;;;;2.20;1.30;;;22.20;64.80;;;;;;5096149;28;20274;-55
2023/07/28 06:36:16;;;;;;;1.98;1.20;;;22.10;64.70;;;;;;5095519;28;20190;-57
2023/07/28 06:38:48;;;;;;;2.15;1.15;;;22.20;64.80;;;;;;5095759;28;20299;-57
2023/07/28 06:41:15;;;;;;;3.25;1.17;;;22.20;64.90;;;;;;5095335;28;20637;-56
2023/07/28 06:43:42;;;;;;;1.95;1.15;;;22.10;64.80;;;;;;5095522;28;20291;-53
2023/07/28 06:46:10;;;;;;;1.92;1.40;;;22.20;64.90;;;;;;5095426;28;20193;-57
2023/07/28 06:48:37;;;;;;;2.15;1.30;;;22.20;64.90;;;;;;5095519;28;20225;-55
2023/07/28 06:51:04;;;;;;;1.67;1.40;;;22.10;64.80;;;;;;5095486;28;20190;-56
2023/07/28 06:53:32;;;;;;;2.13;1.20;;;22.20;64.90;;;;;;5095078;28;20217;-56
2023/07/28 06:56:01;;;;;;;2.17;1.38;;;22.20;64.90;;;;;;5095666;28;20197;-55
2023/07/28 06:58:28;;;;;;;1.10;1.00;;;22.20;64.90;;;;;;5095411;28;20182;-56
2023/07/28 07:00:56;;;;;;;4.30;1.30;;;22.10;64.90;;;;;;5095330;28;20186;-57
2023/07/28 07:03:25;;;;;;;2.53;1.38;;;22.20;64.90;;;;;;5095033;28;20226;-54
2023/07/28 07:05:52;;;;;;;1.10;1.00;;;22.20;65.00;;;;;;5095271;28;20186;-60
2023/07/28 07:08:19;;;;;;;1.60;1.15;;;22.20;64.90;;;;;;5094699;28;20701;-60
2023/07/28 07:10:50;;;;;;;2.55;1.20;;;22.20;64.90;;;;;;5095017;28;20242;-59
2023/07/28 07:13:21;;;;;;;1.85;1.38;;;22.20;64.80;;;;;;5088930;28;20197;-59
2023/07/28 07:15:49;;;;;;;2.42;1.20;;;22.20;64.80;;;;;;5111131;28;20228;-59
2023/07/28 07:18:19;;;;;;;1.20;1.10;;;22.20;65.30;;;;;;5096846;28;20200;-59
2023/07/28 07:20:46;;;;;;;1.75;1.33;;;22.30;65.00;;;;;;5109704;28;20604;-55
2023/07/28 07:23:14;;;;;;;5.32;1.70;;;22.30;64.90;;;;;;5110178;27;20216;-60
2023/07/28 07:25:41;;;;;;;1.13;1.02;;;22.30;64.90;;;;;;5094915;27;20202;-61
2023/07/28 07:28:18;;;;;;;2.25;1.10;;;22.30;64.90;;;;;;5088757;28;20194;-55
2023/07/28 07:30:56;;;;;;;1.83;1.30;;;22.30;64.90;;;;;;5113483;27;20217;-52
2023/07/28 07:33:24;;;;;;;4.70;1.20;;;22.40;65.00;;;;;;5114917;27;20185;-56
2023/07/28 07:35:52;;;;;;;4.10;1.35;;;22.40;65.10;;;;;;5114083;28;20193;-55
2023/07/28 07:38:45;;;;;;;2.00;1.40;;;22.40;65.00;;;;;;5102520;28;20236;-54
2023/07/28 07:41:15;;;;;;;4.45;1.30;;;22.40;64.90;;;;;;5095886;28;20204;-57
2023/07/28 07:44:08;;;;;;;1.83;1.17;;;22.50;64.90;;;;;;5107333;27;20217;-57
2023/07/28 07:46:44;;;;;;;1.48;1.27;;;22.50;64.90;;;;;;5101762;28;20201;-60
2023/07/28 07:49:15;;;;;;;1.90;1.33;;;22.50;64.80;;;;;;5105440;27;20216;-60
2023/07/28 07:51:45;;;;;;;2.72;1.25;;;22.50;64.80;;;;;;5112562;28;20197;-59
2023/07/28 07:54:27;;;;;;;1.95;1.33;;;22.50;64.80;;;;;;5112953;28;20209;-59
2023/07/28 08:02:59;;;;;;;2.75;1.30;;;22.60;64.80;;;;;;5029460;28;20227;-56
2023/07/28 08:05:28;;;;;;;2.45;1.20;;;22.60;64.70;;;;;;5020653;28;20302;-58
2023/07/28 08:07:56;;;;;;;1.25;1.15;;;22.60;64.60;;;;;;5059165;28;20186;-54
2023/07/28 08:10:27;;;;;;;2.50;1.23;;;22.60;64.60;;;;;;5067903;28;20779;-58
2023/07/28 08:12:59;;;;;;;2.25;1.20;;;22.60;64.60;;;;;;5066041;28;20187;-58
2023/07/28 08:15:32;;;;;;;8.32;1.33;;;22.70;64.70;;;;;;4953168;28;20230;-57
2023/07/28 08:18:29;;;;;;;4.28;1.10;;;22.70;64.70;;;;;;5059387;28;20206;-53
2023/07/28 08:21:00;;;;;;;4.25;1.20;;;22.70;64.70;;;;;;4966387;28;20305;-56
2023/07/28 08:23:28;;;;;;;3.03;1.55;;;22.70;64.60;;;;;;5017640;28;20263;-55
2023/07/28 08:29:15;;;;;;;2.92;1.40;;;22.70;64.60;;;;;;4989388;28;20316;-56
2023/07/28 08:31:43;;;;;;;2.47;1.40;;;22.70;64.50;;;;;;4988982;28;20312;-55
2023/07/28 08:34:11;;;;;;;3.30;1.50;;;22.70;64.50;;;;;;4990617;28;20593;-54
2023/07/28 08:36:38;;;;;;;2.00;1.40;;;22.70;64.50;;;;;;5011691;28;20196;-50
2023/07/28 08:39:18;;;;;;;2.28;1.38;;;22.70;64.40;;;;;;5031945;28;20220;-50
2023/07/28 08:41:45;;;;;;;2.20;1.35;;;22.70;64.40;;;;;;5038626;28;20759;-60
2023/07/28 08:44:12;;;;;;;2.28;1.23;;;22.80;64.50;;;;;;5047558;28;20231;-60
2023/07/28 08:46:40;;;;;;;2.95;1.48;;;22.80;64.40;;;;;;5049244;28;20206;-57
2023/07/28 08:49:07;;;;;;;2.13;1.35;;;22.80;64.30;;;;;;5049624;28;20211;-58
2023/07/28 08:51:41;;;;;;;2.55;1.38;;;22.80;64.30;;;;;;5047438;28;20279;-58
2023/07/28 08:54:19;;;;;;;;;;;;;;;;;;;;;
2023/07/28 08:56:46;;;;;;;1.90;1.25;;;22.80;64.20;;;;;;5037803;28;20207;-57
2023/07/28 08:59:21;;;;;;;1.30;1.10;;;22.80;64.20;;;;;;5044280;28;20270;-57
2023/07/28 09:01:53;;;;;;;1.67;1.30;;;22.90;64.30;;;;;;5032501;28;20258;-58
2023/07/28 09:04:25;;;;;;;2.40;1.60;;;22.90;64.20;;;;;;5036287;28;20243;-58
2023/07/28 09:06:54;;;;;;;1.52;1.23;;;22.90;64.10;;;;;;5076844;28;20284;-56
2023/07/28 09:09:23;;;;;;;2.22;1.23;;;22.90;64.00;;;;;;5097161;28;20214;-57
2023/07/28 09:11:53;;;;;;;2.55;1.40;;;22.90;64.00;;;;;;5101435;28;20193;-56
2023/07/28 09:14:23;;;;;;;1.98;1.15;;;23.00;63.90;;;;;;5108455;27;20651;-56
2023/07/28 09:16:52;;;;;;;1.95;1.20;;;23.00;63.90;;;;;;5100765;28;20194;-56
2023/07/28 09:19:22;;;;;;;2.08;1.20;;;23.00;63.70;;;;;;5101450;28;20795;-57
2023/07/28 09:22:09;;;;;;;3.17;1.50;;;23.00;63.70;;;;;;5093052;28;20201;-59
2023/07/28 09:24:40;;;;;;;3.17;1.38;;;23.00;63.60;;;;;;5100898;28;20223;-56
2023/07/28 09:27:09;;;;;;;1.67;1.20;;;23.00;63.60;;;;;;5059776;28;20213;-54
2023/07/28 09:29:39;;;;;;;2.60;1.33;;;23.10;63.70;;;;;;5109944;28;20221;-51
2023/07/28 09:32:12;;;;;;;1.60;1.00;;;23.10;63.70;;;;;;5109299;28;20243;-56
2023/07/28 09:34:40;;;;;;;2.00;1.30;;;23.10;63.70;;;;;;5081077;28;20219;-56
2023/07/28 09:37:11;;;;;;;2.50;1.10;;;23.10;63.60;;;;;;5112332;28;20193;-55
2023/07/28 09:39:49;;;;;;;1.80;1.13;;;23.10;63.70;;;;;;5112023;28;20300;-55
2023/07/28 09:42:17;;;;;;;3.83;1.45;;;23.10;63.50;;;;;;5109517;28;20188;-56
2023/07/28 09:44:54;;;;;;;1.45;1.20;;;23.10;63.60;;;;;;5103849;28;20233;-59
2023/07/28 09:47:25;;;;;;;1.20;1.10;;;23.10;63.60;;;;;;5068353;28;20288;-57
2023/07/28 09:49:54;;;;;;;2.70;1.10;;;23.20;63.60;;;;;;5108498;28;20774;-57
2023/07/28 09:52:28;;;;;;;2.28;1.30;;;23.20;63.60;;;;;;5100807;28;20209;-56
2023/07/28 09:54:58;;;;;;;1.48;1.20;;;23.20;63.60;;;;;;5111877;28;20216;-57
2023/07/28 09:57:28;;;;;;;1.40;1.10;;;23.20;63.60;;;;;;5092905;28;20277;-57
2023/07/28 09:59:57;;;;;;;1.15;1.05;;;23.20;63.60;;;;;;5122933;27;20552;-57
2023/07/28 10:02:26;;;;;;;1.45;1.17;;;23.20;63.60;;;;;;5120463;27;20193;-57
2023/07/28 10:04:55;;;;;;;1.27;1.00;;;23.20;63.60;;;;;;5066685;28;20236;-56
2023/07/28 10:07:25;;;;;;;2.13;1.13;;;23.30;63.70;;;;;;5104736;28;20201;-56
2023/07/28 10:10:02;;;;;;;4.85;1.15;;;23.20;63.60;;;;;;5113913;27;20213;-56
2023/07/28 10:12:29;;;;;;;1.20;1.10;;;23.30;63.70;;;;;;5109371;27;20193;-55
2023/07/28 10:15:05;;;;;;;3.25;1.25;;;23.30;63.70;;;;;;5106848;27;20664;-57
2023/07/28 10:17:34;;;;;;;1.95;1.10;;;23.30;63.70;;;;;;5111232;28;20668;-57
2023/07/28 10:20:08;;;;;;;3.90;1.33;;;23.30;63.70;;;;;;5115081;27;20220;-57
2023/07/28 10:22:47;;;;;;;3.20;1.25;;;23.20;63.60;;;;;;5113114;27;20735;-57
2023/07/28 10:25:23;;;;;;;1.70;1.15;;;23.30;63.70;;;;;;5103963;28;20333;-57
2023/07/28 10:27:52;;;;;;;1.50;1.35;;;23.30;63.70;;;;;;5110640;27;20224;-58
2023/07/28 10:30:20;;;;;;;2.65;1.10;;;23.30;63.70;;;;;;5107316;28;20328;-58
2023/07/28 10:32:50;;;;;;;1.67;1.20;;;23.30;63.70;;;;;;5114732;28;20742;-58
2023/07/28 10:35:27;;;;;;;1.60;1.10;;;23.30;63.70;;;;;;5122637;27;20220;-57
2023/07/28 10:37:56;;;;;;;1.48;1.00;;;23.30;63.70;;;;;;5118869;27;20357;-55
2023/07/28 10:40:31;;;;;;;1.45;1.10;;;23.20;63.60;;;;;;5109014;27;20596;-56
2023/07/28 10:42:59;;;;;;;2.30;1.25;;;23.30;63.70;;;;;;5112078;27;20197;-56
2023/07/28 10:45:28;;;;;;;1.90;1.27;;;23.30;63.70;;;;;;5103963;27;20218;-55
2023/07/28 10:47:56;;;;;;;2.08;1.15;;;23.30;63.70;;;;;;5092771;28;20679;-55
2023/07/28 10:50:24;;;;;;;1.48;1.20;;;23.30;63.60;;;;;;5102051;28;20733;-54
2023/07/28 10:52:52;;;;;;;1.98;1.10;;;23.30;63.60;;;;;;5113747;28;20189;-55
2023/07/28 10:55:22;;;;;;;1.05;0.90;;;23.30;63.50;;;;;;5110931;28;20213;-56
2023/07/28 10:57:51;;;;;;;1.75;1.10;;;23.30;63.50;;;;;;5113091;28;20268;-56
2023/07/28 11:00:19;;;;;;;1.80;1.10;;;23.30;63.50;;;;;;5113769;28;20303;-58
2023/07/28 11:02:48;;;;;;;1.70;1.10;;;23.30;63.40;;;;;;5114220;28;20186;-55
2023/07/28 11:05:19;;;;;;;2.15;1.20;;;23.30;63.40;;;;;;5113990;27;20333;-55
2023/07/28 11:07:46;;;;;;;1.50;0.90;;;23.30;63.40;;;;;;5113158;28;20642;-56
2023/07/28 11:10:15;;;;;;;2.47;0.93;;;23.30;63.40;;;;;;5111072;28;20266;-56
2023/07/28 11:12:44;;;;;;;2.08;1.00;;;23.30;63.40;;;;;;5113980;28;20182;-56
2023/07/28 11:15:12;;;;;;;4.47;1.23;;;23.30;63.40;;;;;;5113676;28;20236;-57
2023/07/28 11:17:40;;;;;;;1.20;1.10;;;23.30;64.10;;;;;;5114094;28;20189;-56
2023/07/28 11:20:16;;;;;;;1.50;0.98;;;23.30;63.20;;;;;;5118624;27;20638;-56
2023/07/28 11:22:44;;;;;;;1.30;1.00;;;23.30;63.30;;;;;;5123822;27;20549;-55
2023/07/28 11:25:11;;;;;;;1.80;1.02;;;23.30;63.30;;;;;;5115980;27;20220;-56
2023/07/28 11:27:38;;;;;;;1.10;0.98;;;23.30;63.20;;;;;;5134286;27;20200;-55
2023/07/28 11:30:09;;;;;;;1.40;0.80;;;23.30;63.20;;;;;;5113371;28;20219;-56
2023/07/28 11:32:37;;;;;;;1.25;0.95;;;23.30;63.20;;;;;;5104375;28;20574;-56
2023/07/28 11:35:06;;;;;;;1.10;0.90;;;23.40;63.40;;;;;;5113296;28;20312;-56
2023/07/28 11:37:34;;;;;;;1.10;1.00;;;23.30;63.20;;;;;;5113127;28;20650;-56
2023/07/28 11:40:06;;;;;;;0.88;0.80;;;23.30;63.20;;;;;;5113308;27;20209;-57
2023/07/28 11:42:34;;;;;;;1.60;1.00;;;23.30;63.20;;;;;;5132352;27;20561;-56
2023/07/28 11:45:01;;;;;;;1.50;0.80;;;23.30;63.10;;;;;;5104064;28;20219;-55
2023/07/28 11:47:30;;;;;;;1.15;0.95;;;23.30;63.10;;;;;;5109222;28;20591;-57
2023/07/28 11:49:58;;;;;;;1.92;1.20;;;23.30;63.10;;;;;;5113458;27;20201;-54
2023/07/28 11:52:25;;;;;;;2.10;1.00;;;23.40;63.10;;;;;;5121395;27;20194;-57
2023/07/28 11:54:53;;;;;;;1.48;1.10;;;23.40;63.10;;;;;;5099891;27;20645;-54
2023/07/28 11:57:20;;;;;;;1.23;0.98;;;23.40;63.10;;;;;;5092905;28;20186;-54
2023/07/28 11:59:48;;;;;;;4.18;1.20;;;23.40;63.10;;;;;;5107454;28;20704;-56
2023/07/28 12:02:14;;;;;;;1.10;0.90;;;23.40;63.00;;;;;;5092380;28;20186;-55
2023/07/28 12:04:46;;;;;;;1.52;1.10;;;23.40;63.10;;;;;;5092564;28;20302;-56
2023/07/28 12:07:16;;;;;;;1.88;0.85;;;23.40;63.00;;;;;;5107390;28;20309;-54
2023/07/28 12:09:52;;;;;;;1.63;1.10;;;23.40;63.00;;;;;;5097497;27;20288;-57
2023/07/28 12:12:23;;;;;;;1.10;1.00;;;23.50;63.10;;;;;;5097975;27;20238;-59
2023/07/28 12:14:51;;;;;;;1.63;1.15;;;23.40;63.00;;;;;;5106256;27;20189;-58
2023/07/28 12:17:19;;;;;;;3.72;1.10;;;23.40;63.00;;;;;;5099292;28;20237;-58
2023/07/28 12:19:59;;;;;;;1.42;1.10;;;23.40;62.90;;;;;;5112091;27;20660;-58
2023/07/28 12:22:26;;;;;;;1.83;1.10;;;23.40;62.90;;;;;;5127074;27;20224;-59
2023/07/28 12:24:55;;;;;;;2.70;1.20;;;23.40;62.90;;;;;;5129466;27;20204;-58
2023/07/28 12:27:24;;;;;;;1.50;1.00;;;23.40;62.90;;;;;;5130508;27;20295;-58
2023/07/28 12:29:51;;;;;;;1.25;0.90;;;23.30;62.80;;;;;;5106411;27;20233;-57
2023/07/28 12:32:19;;;;;;;1.73;1.08;;;23.40;62.90;;;;;;5101854;28;20322;-58
2023/07/28 12:34:46;;;;;;;1.40;1.30;;;23.40;62.80;;;;;;5111725;27;20194;-58
2023/07/28 12:37:14;;;;;;;1.95;1.13;;;23.40;62.80;;;;;;5111285;28;20217;-57
2023/07/28 12:39:41;;;;;;;3.35;1.40;;;23.40;62.80;;;;;;5128045;27;20484;-55
2023/07/28 12:42:09;;;;;;;2.22;1.05;;;23.40;62.80;;;;;;5131788;27;20736;-56
2023/07/28 12:44:36;;;;;;;1.67;1.35;;;23.40;62.80;;;;;;5110228;27;20299;-57
2023/07/28 12:47:04;;;;;;;1.85;1.20;;;23.40;62.80;;;;;;5111691;28;20770;-57
2023/07/28 12:49:34;;;;;;;1.67;1.10;;;23.40;63.00;;;;;;5126738;27;20587;-59
2023/07/28 12:52:02;;;;;;;1.98;1.13;;;23.40;62.90;;;;;;5132085;27;20245;-60
2023/07/28 12:54:31;;;;;;;1.67;1.42;;;23.40;62.80;;;;;;5130925;27;20192;-59
2023/07/28 12:56:58;;;;;;;1.38;1.13;;;23.50;62.90;;;;;;5132114;27;20217;-61
2023/07/28 12:59:25;;;;;;;1.73;0.90;;;23.50;63.50;;;;;;5130592;27;20200;-57
2023/07/28 13:01:54;;;;;;;1.63;1.05;;;23.50;62.70;;;;;;5127109;27;20225;-56
2023/07/28 13:04:22;;;;;;;2.13;1.10;;;23.50;62.70;;;;;;5123267;27;20246;-56
2023/07/28 13:06:49;;;;;;;1.38;1.02;;;23.60;62.80;;;;;;5110353;27;20341;-57
2023/07/28 13:09:16;;;;;;;4.97;1.30;;;23.50;62.70;;;;;;5109381;28;20219;-55
2023/07/28 13:11:44;;;;;;;1.85;1.20;;;23.60;62.80;;;;;;5109914;28;20266;-56
2023/07/28 13:14:11;;;;;;;1.73;1.08;;;23.60;62.80;;;;;;5110661;27;20211;-56
2023/07/28 13:16:38;;;;;;;2.75;1.10;;;23.60;62.80;;;;;;5110085;28;20221;-56